createdAt,value
2018-05-23T00:01:42.405Z,23.70
2018-05-23T00:04:08.396Z,23.70
2018-05-23T00:06:34.388Z,23.69
2018-05-23T00:09:00.374Z,23.70
2018-05-23T00:11:26.362Z,23.69
2018-05-23T00:13:52.347Z,23.68
2018-05-23T00:16:18.336Z,23.69
2018-05-23T00:18:44.315Z,23.69
2018-05-23T00:21:10.305Z,23.68
2018-05-23T00:23:36.285Z,23.68
2018-05-23T00:26:02.258Z,23.68
2018-05-23T00:28:28.245Z,23.67
2018-05-23T00:30:54.222Z,23.67
2018-05-23T00:33:20.206Z,23.67
2018-05-23T00:35:46.187Z,23.67
2018-05-23T00:38:12.172Z,23.66
2018-05-23T00:40:38.154Z,23.66
2018-05-23T00:43:04.135Z,23.65
2018-05-23T00:45:30.123Z,23.65
2018-05-23T00:47:56.099Z,23.65
2018-05-23T00:50:22.185Z,23.65
2018-05-23T00:52:48.076Z,23.65
2018-05-23T00:55:14.061Z,23.64
2018-05-23T00:57:40.074Z,23.64
2018-05-23T01:00:06.083Z,23.64
2018-05-23T01:02:32.068Z,23.63
2018-05-23T01:04:58.054Z,23.64
2018-05-23T01:07:24.043Z,23.63
2018-05-23T01:09:50.029Z,23.62
2018-05-23T01:12:16.007Z,23.62
2018-05-23T01:14:41.992Z,23.62
2018-05-23T01:17:07.966Z,23.62
2018-05-23T01:19:33.960Z,23.61
2018-05-23T01:21:59.950Z,23.61
2018-05-23T01:24:25.932Z,23.61
2018-05-23T01:26:51.912Z,23.61
2018-05-23T01:29:17.897Z,23.60
2018-05-23T01:31:43.888Z,23.61
2018-05-23T01:34:09.867Z,23.60
2018-05-23T01:36:35.862Z,23.60
2018-05-23T01:39:01.859Z,23.59
2018-05-23T01:41:27.842Z,23.60
2018-05-23T01:43:53.822Z,23.59
2018-05-23T01:46:19.809Z,23.59
2018-05-23T01:48:45.808Z,23.59
2018-05-23T01:51:11.798Z,23.59
2018-05-23T01:53:37.785Z,23.59
2018-05-23T01:56:03.761Z,23.58
2018-05-23T01:58:29.750Z,23.58
2018-05-23T02:00:55.736Z,23.58
2018-05-23T02:03:21.722Z,23.58
2018-05-23T02:05:47.735Z,23.57
2018-05-23T02:08:13.714Z,23.58
2018-05-23T02:10:39.700Z,23.57
2018-05-23T02:13:05.687Z,23.57
2018-05-23T02:15:31.666Z,23.57
2018-05-23T02:17:57.691Z,23.56
2018-05-23T02:20:23.675Z,23.56
2018-05-23T02:22:49.650Z,23.56
2018-05-23T02:25:15.644Z,23.56
2018-05-23T02:27:41.622Z,23.55
2018-05-23T02:30:07.607Z,23.56
2018-05-23T02:32:33.717Z,23.55
2018-05-23T02:34:59.697Z,23.55
2018-05-23T02:37:25.695Z,23.55
2018-05-23T02:39:51.691Z,23.55
2018-05-23T02:42:17.685Z,23.55
2018-05-23T02:44:43.660Z,23.54
2018-05-23T02:47:09.755Z,23.54
2018-05-23T02:49:35.686Z,23.54
2018-05-23T02:52:01.660Z,23.54
2018-05-23T02:54:27.680Z,23.54
2018-05-23T02:56:53.661Z,23.54
2018-05-23T02:59:19.643Z,23.53
2018-05-23T03:01:45.624Z,23.53
2018-05-23T03:04:11.604Z,23.53
2018-05-23T03:06:37.588Z,23.53
2018-05-23T03:09:03.577Z,23.53
2018-05-23T03:11:29.579Z,23.53
2018-05-23T03:13:55.572Z,23.53
2018-05-23T03:16:21.562Z,23.52
2018-05-23T03:18:47.553Z,23.52
2018-05-23T03:21:13.538Z,23.52
2018-05-23T03:23:39.526Z,23.52
2018-05-23T03:26:05.513Z,23.52
2018-05-23T03:28:31.492Z,23.52
2018-05-23T03:30:57.480Z,23.52
2018-05-23T03:33:23.465Z,23.52
2018-05-23T03:35:49.445Z,23.51
2018-05-23T03:38:15.435Z,23.51
2018-05-23T03:40:41.410Z,23.51
2018-05-23T03:43:07.408Z,23.51
2018-05-23T03:45:33.396Z,23.50
2018-05-23T03:47:59.372Z,23.50
2018-05-23T03:50:25.355Z,23.50
2018-05-23T03:52:51.341Z,23.51
2018-05-23T03:55:17.326Z,23.50
2018-05-23T03:57:43.309Z,23.50
2018-05-23T04:00:09.298Z,23.50
2018-05-23T04:02:35.282Z,23.50
2018-05-23T04:05:01.277Z,23.50
2018-05-23T04:07:27.283Z,23.49
2018-05-23T04:09:53.302Z,23.51
2018-05-23T04:12:19.285Z,23.51
2018-05-23T04:14:45.297Z,23.52
2018-05-23T04:17:11.279Z,23.53
2018-05-23T04:19:37.253Z,23.53
2018-05-23T04:22:03.239Z,23.54
2018-05-23T04:24:29.249Z,23.53
2018-05-23T04:26:55.224Z,23.56
2018-05-23T04:29:21.211Z,23.57
2018-05-23T04:31:47.238Z,23.57
2018-05-23T04:34:13.218Z,23.57
2018-05-23T04:36:39.205Z,23.56
2018-05-23T04:39:05.202Z,23.55
2018-05-23T04:41:31.191Z,23.54
2018-05-23T04:43:57.177Z,23.53
2018-05-23T04:46:23.160Z,23.53
2018-05-23T04:48:49.249Z,23.53
2018-05-23T04:51:15.140Z,23.52
2018-05-23T04:53:41.131Z,23.51
2018-05-23T04:56:07.113Z,23.51
2018-05-23T04:58:33.110Z,23.51
2018-05-23T05:00:59.092Z,23.51
2018-05-23T05:03:25.099Z,23.51
2018-05-23T05:05:51.073Z,23.50
2018-05-23T05:08:17.089Z,23.50
2018-05-23T05:10:43.064Z,23.50
2018-05-23T05:13:09.044Z,23.50
2018-05-23T05:15:35.070Z,23.50
2018-05-23T05:18:01.045Z,23.50
2018-05-23T05:20:27.069Z,23.50
2018-05-23T05:22:53.068Z,23.51
2018-05-23T05:25:19.083Z,23.51
2018-05-23T05:27:45.073Z,23.50
2018-05-23T05:30:11.069Z,23.51
2018-05-23T05:32:37.047Z,23.51
2018-05-23T05:35:03.050Z,23.54
2018-05-23T05:37:29.041Z,23.55
2018-05-23T05:39:55.032Z,23.57
2018-05-23T05:42:21.025Z,23.57
2018-05-23T05:44:47.030Z,23.58
2018-05-23T05:47:13.028Z,23.59
2018-05-23T05:49:39.044Z,23.57
2018-05-23T05:52:05.089Z,23.52
2018-05-23T05:54:31.072Z,23.53
2018-05-23T05:56:57.211Z,23.54
2018-05-23T05:59:23.200Z,23.53
2018-05-23T06:01:49.202Z,23.53
2018-05-23T06:04:15.184Z,23.53
2018-05-23T06:06:41.164Z,23.52
2018-05-23T06:09:07.166Z,23.52
2018-05-23T06:11:33.163Z,23.52
2018-05-23T06:13:59.150Z,23.54
2018-05-23T06:16:25.192Z,23.57
2018-05-23T06:18:51.173Z,23.57
2018-05-23T06:21:17.176Z,23.59
2018-05-23T06:23:43.166Z,23.60
2018-05-23T06:26:09.171Z,23.61
2018-05-23T06:28:35.180Z,23.62
2018-05-23T06:31:01.161Z,23.63
2018-05-23T06:33:27.157Z,23.63
2018-05-23T06:35:53.147Z,23.63
2018-05-23T06:38:19.133Z,23.65
2018-05-23T06:40:45.132Z,23.65
2018-05-23T06:43:11.168Z,23.67
2018-05-23T06:45:37.156Z,23.67
2018-05-23T06:48:03.143Z,23.68
2018-05-23T06:50:29.147Z,23.67
2018-05-23T06:52:55.134Z,23.66
2018-05-23T06:55:21.128Z,23.69
2018-05-23T06:57:47.117Z,23.69
2018-05-23T07:00:13.114Z,23.70
2018-05-23T07:02:39.088Z,23.71
2018-05-23T07:05:05.143Z,23.70
2018-05-23T07:07:31.088Z,23.73
2018-05-23T07:09:57.073Z,23.73
2018-05-23T07:12:23.059Z,23.72
2018-05-23T07:14:49.056Z,23.72
2018-05-23T07:17:15.099Z,23.74
2018-05-23T07:19:41.089Z,23.74
2018-05-23T07:22:07.091Z,23.75
2018-05-23T07:24:33.102Z,23.75
2018-05-23T07:26:59.112Z,23.76
2018-05-23T07:29:25.101Z,23.77
2018-05-23T07:31:51.084Z,23.77
2018-05-23T07:34:17.069Z,23.77
2018-05-23T07:36:43.047Z,23.77
2018-05-23T07:39:09.035Z,23.75
2018-05-23T07:41:35.011Z,23.74
2018-05-23T07:44:01.028Z,23.74
2018-05-23T07:46:27.015Z,23.76
2018-05-23T07:48:53.005Z,23.77
2018-05-23T07:51:18.989Z,23.75
2018-05-23T07:53:44.963Z,23.72
2018-05-23T07:56:10.954Z,23.72
2018-05-23T07:58:36.948Z,23.72
2018-05-23T08:01:02.935Z,23.71
2018-05-23T08:03:29.029Z,23.70
2018-05-23T08:05:55.042Z,23.70
2018-05-23T08:08:21.009Z,23.70
2018-05-23T08:10:46.994Z,23.69
2018-05-23T08:13:12.981Z,23.71
2018-05-23T08:15:38.999Z,23.83
2018-05-23T08:18:04.954Z,23.81
2018-05-23T08:20:30.975Z,23.81
2018-05-23T08:22:56.961Z,23.84
2018-05-23T08:25:22.965Z,23.93
2018-05-23T08:27:48.951Z,23.99
2018-05-23T08:30:14.922Z,23.91
2018-05-23T08:32:40.909Z,23.86
2018-05-23T08:35:06.892Z,23.83
2018-05-23T08:37:32.878Z,23.82
2018-05-23T08:39:58.860Z,23.80
2018-05-23T08:42:24.967Z,23.79
2018-05-23T08:44:50.979Z,23.80
2018-05-23T08:47:16.984Z,23.79
2018-05-23T08:49:43.159Z,23.79
2018-05-23T08:52:09.144Z,23.79
2018-05-23T08:54:35.180Z,23.79
2018-05-23T08:57:01.158Z,23.79
2018-05-23T08:59:27.149Z,23.79
2018-05-23T09:01:53.272Z,23.80
2018-05-23T09:04:19.342Z,23.79
2018-05-23T09:06:45.341Z,23.79
2018-05-23T09:09:11.361Z,23.78
2018-05-23T09:11:37.340Z,23.78
2018-05-23T09:14:03.325Z,23.78
2018-05-23T09:16:29.311Z,23.77
2018-05-23T09:18:55.302Z,23.77
2018-05-23T09:21:21.792Z,23.76
2018-05-23T09:23:47.775Z,23.76
2018-05-23T09:26:13.771Z,23.76
2018-05-23T09:28:39.760Z,23.76
2018-05-23T09:31:05.883Z,23.76
2018-05-23T09:33:31.864Z,23.76
2018-05-23T09:35:57.873Z,23.75
2018-05-23T09:38:23.866Z,23.75
2018-05-23T09:40:50.035Z,23.76
2018-05-23T09:43:16.018Z,23.77
2018-05-23T09:45:42.006Z,23.78
2018-05-23T09:48:08.033Z,23.78
2018-05-23T09:50:34.058Z,23.79
2018-05-23T09:53:00.061Z,23.78
2018-05-23T09:55:26.160Z,23.78
2018-05-23T09:57:52.163Z,23.78
2018-05-23T10:00:18.155Z,23.77
2018-05-23T10:02:44.141Z,23.78
2018-05-23T10:05:10.128Z,23.77
2018-05-23T10:07:36.140Z,23.77
2018-05-23T10:10:02.136Z,23.78
2018-05-23T10:12:28.119Z,23.77
2018-05-23T10:14:54.117Z,23.77
2018-05-23T10:17:20.104Z,23.77
2018-05-23T10:19:46.121Z,23.77
2018-05-23T10:22:12.104Z,23.77
2018-05-23T10:24:38.096Z,23.76
2018-05-23T10:27:04.080Z,23.77
2018-05-23T10:29:30.060Z,23.77
2018-05-23T10:31:56.047Z,23.77
2018-05-23T10:34:22.026Z,23.77
2018-05-23T10:36:48.037Z,23.77
2018-05-23T10:39:14.076Z,23.77
2018-05-23T10:41:40.068Z,23.77
2018-05-23T10:44:06.057Z,23.76
2018-05-23T10:46:32.037Z,23.76
2018-05-23T10:48:58.074Z,23.77
2018-05-23T10:51:24.060Z,23.77
2018-05-23T10:53:50.048Z,23.77
2018-05-23T10:56:16.030Z,23.78
2018-05-23T10:58:42.016Z,23.78
2018-05-23T11:01:08.008Z,23.78
2018-05-23T11:03:33.997Z,23.78
2018-05-23T11:06:00.075Z,23.78
2018-05-23T11:08:25.967Z,23.80
2018-05-23T11:10:51.964Z,23.80
2018-05-23T11:13:17.951Z,23.81
2018-05-23T11:15:43.954Z,23.81
2018-05-23T11:18:09.941Z,23.82
2018-05-23T11:20:35.941Z,23.81
2018-05-23T11:23:01.918Z,23.81
2018-05-23T11:25:27.906Z,23.82
2018-05-23T11:27:53.895Z,23.82
2018-05-23T11:30:19.879Z,23.83
2018-05-23T11:32:46.077Z,23.82
2018-05-23T11:35:12.071Z,23.81
2018-05-23T11:37:38.073Z,23.83
2018-05-23T11:40:04.059Z,23.83
2018-05-23T11:42:30.079Z,23.83
2018-05-23T11:44:56.063Z,23.85
2018-05-23T11:47:22.052Z,23.85
2018-05-23T11:49:48.060Z,23.85
2018-05-23T11:52:14.175Z,23.85
2018-05-23T11:54:40.165Z,23.85
2018-05-23T11:57:06.119Z,23.84
2018-05-23T11:59:32.105Z,23.85
2018-05-23T12:01:58.209Z,23.84
2018-05-23T12:04:24.123Z,23.85
2018-05-23T12:06:50.107Z,23.85
2018-05-23T12:09:16.090Z,23.85
2018-05-23T12:11:42.103Z,23.85
2018-05-23T12:14:08.084Z,23.84
2018-05-23T12:16:34.079Z,23.85
2018-05-23T12:19:00.077Z,23.84
2018-05-23T12:21:26.112Z,23.83
2018-05-23T12:23:52.091Z,23.83
2018-05-23T12:26:18.072Z,23.83
2018-05-23T12:28:44.054Z,23.81
2018-05-23T12:31:10.035Z,23.82
2018-05-23T12:33:36.070Z,23.81
2018-05-23T12:36:02.066Z,23.80
2018-05-23T12:38:28.047Z,23.80
2018-05-23T12:40:54.197Z,23.80
2018-05-23T12:43:20.078Z,23.79
2018-05-23T12:45:46.069Z,23.78
2018-05-23T12:48:12.057Z,23.79
2018-05-23T12:50:38.050Z,23.77
2018-05-23T12:53:04.029Z,23.78
2018-05-23T12:55:30.012Z,23.78
2018-05-23T12:57:56.013Z,23.78
2018-05-23T13:00:21.996Z,23.78
2018-05-23T13:02:48.052Z,23.77
2018-05-23T13:05:14.188Z,23.78
2018-05-23T13:07:40.191Z,23.76
2018-05-23T13:10:06.172Z,23.77
2018-05-23T13:12:32.266Z,23.75
2018-05-23T13:14:58.158Z,23.75
2018-05-23T13:17:24.156Z,23.74
2018-05-23T13:19:50.143Z,23.74
2018-05-23T13:22:16.135Z,23.73
2018-05-23T13:24:42.125Z,23.73
2018-05-23T13:27:08.109Z,23.72
2018-05-23T13:29:34.087Z,23.71
2018-05-23T13:32:00.103Z,23.71
2018-05-23T13:34:26.110Z,23.70
2018-05-23T13:36:52.102Z,23.70
2018-05-23T13:39:18.090Z,23.68
2018-05-23T13:41:44.076Z,23.69
2018-05-23T13:44:10.063Z,23.69
2018-05-23T13:46:36.039Z,23.69
2018-05-23T13:49:02.084Z,23.69
2018-05-23T13:51:28.036Z,23.68
2018-05-23T13:53:54.020Z,23.67
2018-05-23T13:56:20.481Z,23.68
2018-05-23T13:58:46.431Z,23.68
2018-05-23T14:01:12.667Z,23.69
2018-05-23T14:03:38.672Z,23.70
2018-05-23T14:06:04.669Z,23.70
2018-05-23T14:08:30.772Z,23.71
2018-05-23T14:10:56.884Z,23.73
2018-05-23T14:13:22.867Z,23.73
2018-05-23T14:15:48.854Z,23.74
2018-05-23T14:18:14.832Z,23.73
2018-05-23T14:20:40.812Z,23.73
2018-05-23T14:23:06.810Z,23.72
2018-05-23T14:25:32.787Z,23.72
2018-05-23T14:27:58.774Z,23.72
2018-05-23T14:30:24.805Z,23.71
2018-05-23T14:32:50.783Z,23.70
2018-05-23T14:35:16.772Z,23.70
2018-05-23T14:37:42.778Z,23.71
2018-05-23T14:40:08.803Z,23.72
2018-05-23T14:42:34.825Z,23.71
2018-05-23T14:45:00.820Z,23.71
2018-05-23T14:47:26.844Z,23.72
2018-05-23T14:49:52.831Z,23.72
2018-05-23T14:52:19.892Z,23.72
2018-05-23T14:54:45.895Z,23.71
2018-05-23T14:57:11.880Z,23.71
2018-05-23T14:59:37.905Z,23.72
2018-05-23T15:02:03.853Z,23.71
2018-05-23T15:04:29.846Z,23.71
2018-05-23T15:06:55.834Z,23.72
2018-05-23T15:09:21.847Z,23.70
2018-05-23T15:11:47.831Z,23.68
2018-05-23T15:14:14.011Z,23.68
2018-05-23T15:16:39.978Z,23.66
2018-05-23T15:19:05.989Z,23.66
2018-05-23T15:21:31.942Z,23.66
2018-05-23T15:23:57.959Z,23.65
2018-05-23T15:26:23.947Z,23.65
2018-05-23T15:28:49.930Z,23.64
2018-05-23T15:31:16.066Z,23.64
2018-05-23T15:33:41.925Z,23.63
2018-05-23T15:36:07.930Z,23.63
2018-05-23T15:38:33.912Z,23.64
2018-05-23T15:40:59.908Z,23.62
2018-05-23T15:43:25.892Z,23.63
2018-05-23T15:45:51.957Z,23.62
2018-05-23T15:48:17.966Z,23.62
2018-05-23T15:50:43.989Z,23.62
2018-05-23T15:53:09.986Z,23.60
2018-05-23T15:55:35.980Z,23.60
2018-05-23T15:58:01.972Z,23.60
2018-05-23T16:00:27.954Z,23.59
2018-05-23T16:02:53.951Z,23.60
2018-05-23T16:05:19.912Z,23.59
2018-05-23T16:07:45.893Z,23.59
2018-05-23T16:10:11.903Z,23.58
2018-05-23T16:12:37.860Z,23.58
2018-05-23T16:15:03.843Z,23.58
2018-05-23T16:17:29.825Z,23.58
2018-05-23T16:19:55.840Z,23.57
2018-05-23T16:22:21.855Z,23.57
2018-05-23T16:24:47.853Z,23.57
2018-05-23T16:27:13.839Z,23.56
2018-05-23T16:29:39.866Z,23.56
2018-05-23T16:32:05.875Z,23.56
2018-05-23T16:34:31.928Z,23.56
2018-05-23T16:36:57.874Z,23.56
2018-05-23T16:39:23.868Z,23.56
2018-05-23T16:41:49.858Z,23.55
2018-05-23T16:44:15.844Z,23.55
2018-05-23T16:46:41.824Z,23.55
2018-05-23T16:49:07.838Z,23.55
2018-05-23T16:51:33.811Z,23.54
2018-05-23T16:53:59.783Z,23.54
2018-05-23T16:56:25.764Z,23.54
2018-05-23T16:58:51.773Z,23.54
2018-05-23T17:01:17.769Z,23.54
2018-05-23T17:03:43.761Z,23.54
2018-05-23T17:06:09.754Z,23.54
2018-05-23T17:08:35.737Z,23.56
2018-05-23T17:11:01.725Z,23.56
2018-05-23T17:13:27.715Z,23.55
2018-05-23T17:15:53.701Z,23.57
2018-05-23T17:18:19.688Z,23.57
2018-05-23T17:20:45.664Z,23.57
2018-05-23T17:23:11.654Z,23.58
2018-05-23T17:25:37.653Z,23.59
2018-05-23T17:28:03.663Z,23.60
2018-05-23T17:30:29.678Z,23.60
2018-05-23T17:32:55.684Z,23.62
2018-05-23T17:35:21.665Z,23.61
2018-05-23T17:37:47.664Z,23.60
2018-05-23T17:40:13.686Z,23.60
2018-05-23T17:42:39.635Z,23.60
2018-05-23T17:45:05.621Z,23.60
2018-05-23T17:47:31.604Z,23.61
2018-05-23T17:49:58.731Z,23.61
2018-05-23T17:52:24.717Z,23.60
2018-05-23T17:54:50.782Z,23.61
2018-05-23T17:57:16.779Z,23.61
2018-05-23T17:59:42.797Z,23.60
2018-05-23T18:02:08.886Z,23.60
2018-05-23T18:04:34.901Z,23.60
2018-05-23T18:07:00.920Z,23.60
2018-05-23T18:09:26.904Z,23.60
2018-05-23T18:11:53.269Z,23.60
2018-05-23T18:14:19.254Z,23.60
2018-05-23T18:16:45.355Z,23.61
2018-05-23T18:19:11.247Z,23.63
2018-05-23T18:21:37.227Z,23.63
2018-05-23T18:24:03.244Z,23.63
2018-05-23T18:26:29.200Z,23.64
2018-05-23T18:28:55.278Z,23.62
2018-05-23T18:31:21.245Z,23.62
2018-05-23T18:33:47.234Z,23.62
2018-05-23T18:36:13.230Z,23.61
2018-05-23T18:38:39.240Z,23.61
2018-05-23T18:41:05.217Z,23.61
2018-05-23T18:43:31.237Z,23.62
2018-05-23T18:45:57.230Z,23.63
2018-05-23T18:48:23.214Z,23.63
2018-05-23T18:50:49.310Z,23.64
2018-05-23T18:53:15.564Z,23.65
2018-05-23T18:55:42.060Z,23.65
2018-05-23T18:58:08.742Z,23.64
2018-05-23T19:00:35.074Z,23.65
2018-05-23T19:03:01.953Z,23.66
2018-05-23T19:05:28.486Z,23.65
2018-05-23T19:07:54.541Z,23.66
2018-05-23T19:10:21.010Z,23.67
2018-05-23T19:12:47.381Z,23.68
2018-05-23T19:15:13.958Z,23.68
2018-05-23T19:17:40.168Z,23.68
2018-05-23T19:20:06.694Z,23.69
2018-05-23T19:22:32.562Z,23.69
2018-05-23T19:24:58.607Z,23.68
2018-05-23T19:27:24.556Z,23.67
2018-05-23T19:29:50.731Z,23.67
2018-05-23T19:32:16.708Z,23.67
2018-05-23T19:34:42.692Z,23.67
2018-05-23T19:37:08.684Z,23.66
2018-05-23T19:39:34.673Z,23.65
2018-05-23T19:42:00.656Z,23.65
2018-05-23T19:44:26.635Z,23.64
2018-05-23T19:46:52.644Z,23.64
2018-05-23T19:49:18.624Z,23.63
2018-05-23T19:51:44.610Z,23.62
2018-05-23T19:54:11.541Z,23.62
2018-05-23T19:56:37.572Z,23.62
2018-05-23T19:59:03.472Z,23.62
2018-05-23T20:01:29.462Z,23.61
2018-05-23T20:03:57.806Z,23.61
2018-05-23T20:06:23.930Z,23.61
2018-05-23T20:08:49.908Z,23.61
2018-05-23T20:11:15.897Z,23.60
2018-05-23T20:13:42.796Z,23.60
2018-05-23T20:16:08.741Z,23.60
2018-05-23T20:18:34.721Z,23.59
2018-05-23T20:21:00.706Z,23.60
2018-05-23T20:23:26.719Z,23.59
2018-05-23T20:25:52.700Z,23.58
2018-05-23T20:28:18.679Z,23.59
2018-05-23T20:30:44.659Z,23.58
2018-05-23T20:33:10.639Z,23.58
2018-05-23T20:35:36.617Z,23.58
2018-05-23T20:38:02.605Z,23.58
2018-05-23T20:40:28.580Z,23.57
2018-05-23T20:42:54.555Z,23.58
2018-05-23T20:45:20.537Z,23.57
2018-05-23T20:47:46.540Z,23.57
2018-05-23T20:50:12.572Z,23.57
2018-05-23T20:52:38.522Z,23.56
2018-05-23T20:55:04.498Z,23.56
2018-05-23T20:57:30.625Z,23.56
2018-05-23T20:59:56.582Z,23.56
2018-05-23T21:02:22.597Z,23.55
2018-05-23T21:04:48.931Z,23.55
2018-05-23T21:07:15.009Z,23.55
2018-05-23T21:09:41.000Z,23.55
2018-05-23T21:12:07.150Z,23.54
2018-05-23T21:14:33.143Z,23.55
2018-05-23T21:16:59.144Z,23.55
2018-05-23T21:19:25.300Z,23.55
2018-05-23T21:21:51.174Z,23.54
2018-05-23T21:24:17.155Z,23.54
2018-05-23T21:26:43.140Z,23.54
2018-05-23T21:29:09.119Z,23.54
2018-05-23T21:31:35.104Z,23.54
2018-05-23T21:34:01.095Z,23.53
2018-05-23T21:36:27.083Z,23.53
2018-05-23T21:38:53.064Z,23.53
2018-05-23T21:41:19.045Z,23.53
2018-05-23T21:43:45.032Z,23.53
2018-05-23T21:46:11.019Z,23.52
2018-05-23T21:48:37.008Z,23.53
2018-05-23T21:51:02.995Z,23.53
2018-05-23T21:53:29.028Z,23.52
2018-05-23T21:55:55.011Z,23.52
2018-05-23T21:58:20.996Z,23.52
2018-05-23T22:00:46.980Z,23.52
2018-05-23T22:03:12.966Z,23.52
2018-05-23T22:05:38.934Z,23.51
2018-05-23T22:08:04.921Z,23.52
2018-05-23T22:10:30.939Z,23.52
2018-05-23T22:12:56.913Z,23.51
2018-05-23T22:15:22.890Z,23.51
2018-05-23T22:17:48.907Z,23.51
2018-05-23T22:20:14.881Z,23.51
2018-05-23T22:22:40.860Z,23.51
2018-05-23T22:25:06.840Z,23.50
2018-05-23T22:27:32.817Z,23.50
2018-05-23T22:29:58.795Z,23.50
2018-05-23T22:32:24.814Z,23.50
2018-05-23T22:34:50.753Z,23.50
2018-05-23T22:37:16.734Z,23.50
2018-05-23T22:39:42.715Z,23.50
2018-05-23T22:42:08.696Z,23.50
2018-05-23T22:44:34.680Z,23.49
2018-05-23T22:47:00.665Z,23.49
2018-05-23T22:49:26.655Z,23.49
2018-05-23T22:51:52.644Z,23.49
2018-05-23T22:54:18.684Z,23.49
2018-05-23T22:56:44.669Z,23.49
2018-05-23T22:59:10.656Z,23.48
2018-05-23T23:01:36.656Z,23.49
2018-05-23T23:04:02.696Z,23.48
2018-05-23T23:06:28.671Z,23.48
2018-05-23T23:08:54.657Z,23.49
2018-05-23T23:11:20.637Z,23.48
2018-05-23T23:13:46.628Z,23.48
2018-05-23T23:16:12.636Z,23.48
2018-05-23T23:18:38.615Z,23.48
2018-05-23T23:21:04.605Z,23.47
2018-05-23T23:23:30.623Z,23.48
2018-05-23T23:25:56.606Z,23.48
2018-05-23T23:28:22.606Z,23.47
2018-05-23T23:30:48.599Z,23.48
2018-05-23T23:33:14.574Z,23.47
2018-05-23T23:35:40.554Z,23.47
2018-05-23T23:38:06.576Z,23.47
2018-05-23T23:40:32.529Z,23.46
2018-05-23T23:42:58.513Z,23.46
2018-05-23T23:45:24.498Z,23.46
2018-05-23T23:47:50.493Z,23.46
2018-05-23T23:50:16.506Z,23.45
2018-05-23T23:52:42.464Z,23.46
2018-05-23T23:55:08.446Z,23.45
2018-05-23T23:57:34.430Z,23.46
